Time;durP1;ratioP1;P1;durP2;ratioP2;P2;SDS_P1;SDS_P2;PMS_P1;PMS_P2;Temp;Humidity;BMP_temperature;BMP_pressure;BME280_temperature;BME280_humidity;BME280_pressure;Samples;Min_cycle;Max_cycle;Signal;HPM_P1;HPM_P2
2023/02/09 00:01:39;;;;;;;28.80;15.23;;;-3.10;58.40;;;;;;5090137;28;20264;-71
2023/02/09 00:04:09;;;;;;;25.27;14.32;;;-3.10;58.50;;;;;;5091658;28;20186;-70
2023/02/09 00:06:36;;;;;;;26.02;15.45;;;-3.10;58.40;;;;;;5091678;28;20224;-71
2023/02/09 00:09:03;;;;;;;24.42;14.50;;;-3.10;58.60;;;;;;5091341;28;20240;-70
2023/02/09 00:14:19;;;;;;;24.60;14.35;;;-3.10;58.80;;;;;;5075093;28;20208;-71
2023/02/09 00:16:48;;;;;;;29.58;15.55;;;-3.10;58.70;;;;;;5076191;28;20212;-69
2023/02/09 00:19:17;;;;;;;32.95;17.30;;;-3.10;58.30;;;;;;5095789;28;20288;-71
2023/02/09 00:21:49;;;;;;;31.13;17.88;;;-3.10;58.40;;;;;;5095475;28;20296;-70
2023/02/09 00:24:16;;;;;;;49.55;16.33;;;-3.20;58.30;;;;;;5095574;28;20283;-70
2023/02/09 00:26:44;;;;;;;26.58;16.60;;;-3.20;58.10;;;;;;5095513;28;20243;-73
2023/02/09 00:29:11;;;;;;;25.98;15.50;;;-3.30;58.30;;;;;;5095240;28;20309;-70
2023/02/09 00:31:39;;;;;;;27.63;13.88;;;-3.40;58.20;;;;;;5095474;28;20221;-70
2023/02/09 00:34:08;;;;;;;24.42;15.07;;;-3.40;57.90;;;;;;5094927;28;20258;-70
2023/02/09 00:36:35;;;;;;;25.20;13.90;;;-3.50;58.00;;;;;;5095789;28;20710;-69
2023/02/09 00:39:02;;;;;;;27.42;15.20;;;-3.50;58.30;;;;;;5095029;28;20580;-70
2023/02/09 00:44:14;;;;;;;22.02;13.23;;;-3.40;58.80;;;;;;5074852;28;20546;-70
2023/02/09 00:46:42;;;;;;;29.02;14.90;;;-3.40;58.60;;;;;;5075286;28;20225;-69
2023/02/09 00:49:10;;;;;;;28.23;14.13;;;-3.50;58.40;;;;;;5094896;28;20305;-70
2023/02/09 00:51:39;;;;;;;25.38;15.02;;;-3.40;58.40;;;;;;5095515;28;20232;-70
2023/02/09 00:54:06;;;;;;;27.60;13.93;;;-3.40;58.60;;;;;;5093851;28;20258;-71
2023/02/09 00:56:33;;;;;;;22.85;13.20;;;-3.40;58.30;;;;;;5095370;28;20266;-70
2023/02/09 00:59:00;;;;;;;26.05;14.63;;;-3.50;58.20;;;;;;5094979;28;20254;-71
2023/02/09 01:01:27;;;;;;;27.70;15.70;;;-3.50;58.30;;;;;;5095009;28;20728;-70
2023/02/09 01:03:55;;;;;;;22.15;12.77;;;-3.40;58.40;;;;;;5094516;28;20221;-70
2023/02/09 01:06:23;;;;;;;26.98;15.40;;;-3.40;58.10;;;;;;5094731;28;20309;-70
2023/02/09 01:08:50;;;;;;;22.00;15.05;;;-3.50;57.40;;;;;;5094328;28;20292;-70
2023/02/09 01:11:17;;;;;;;23.17;14.18;;;-3.60;57.10;;;;;;5094799;28;20185;-71
2023/02/09 01:13:45;;;;;;;20.77;13.93;;;-3.60;57.00;;;;;;5094324;28;20272;-71
2023/02/09 01:16:15;;;;;;;29.25;14.30;;;-3.60;56.90;;;;;;5094543;28;20189;-70
2023/02/09 01:18:42;;;;;;;27.73;14.85;;;-3.70;57.40;;;;;;5094059;28;20217;-70
2023/02/09 01:21:11;;;;;;;31.08;15.13;;;-3.80;58.00;;;;;;5094819;28;20225;-70
2023/02/09 01:23:39;;;;;;;29.25;15.10;;;-3.80;58.20;;;;;;5094226;28;20229;-70
2023/02/09 01:26:12;;;;;;;23.88;13.20;;;-3.80;58.20;;;;;;5092870;28;20574;-70
2023/02/09 01:28:39;;;;;;;27.67;15.25;;;-3.80;57.80;;;;;;5094272;28;20276;-71
2023/02/09 01:31:17;;;;;;;24.88;14.75;;;-3.80;57.70;;;;;;5094123;28;20271;-69
2023/02/09 01:33:44;;;;;;;20.92;13.20;;;-3.80;57.50;;;;;;5094360;28;20231;-70
2023/02/09 01:36:11;;;;;;;31.33;15.43;;;-3.80;57.90;;;;;;5093971;28;20276;-71
2023/02/09 01:38:39;;;;;;;33.08;15.55;;;-3.90;58.10;;;;;;5094384;28;20280;-70
2023/02/09 01:41:06;;;;;;;25.35;13.45;;;-3.80;58.10;;;;;;5093359;28;20628;-69
2023/02/09 01:43:52;;;;;;;28.13;16.27;;;-3.90;58.50;;;;;;5093675;28;20667;-69
2023/02/09 01:46:19;;;;;;;25.08;16.02;;;-4.00;58.80;;;;;;5092827;28;20640;-70
2023/02/09 01:48:48;;;;;;;29.65;15.90;;;-4.10;58.90;;;;;;5094018;28;20189;-69
2023/02/09 01:51:15;;;;;;;27.60;14.65;;;-4.10;59.10;;;;;;5093503;28;20718;-69
2023/02/09 01:53:44;;;;;;;27.65;14.68;;;-4.10;59.20;;;;;;5093571;28;20280;-71
2023/02/09 01:56:16;;;;;;;26.08;16.73;;;-4.00;59.20;;;;;;5093227;28;20604;-70
2023/02/09 01:58:45;;;;;;;20.42;13.27;;;-4.00;59.10;;;;;;5093968;28;20596;-70
2023/02/09 02:01:13;;;;;;;28.75;14.23;;;-3.90;58.60;;;;;;5093712;28;20216;-69
2023/02/09 02:03:40;;;;;;;25.65;14.13;;;-4.00;58.20;;;;;;5094152;28;20225;-70
2023/02/09 02:06:15;;;;;;;24.23;13.95;;;-4.00;58.20;;;;;;5092938;28;20308;-71
2023/02/09 02:08:48;;;;;;;24.60;14.52;;;-4.00;58.10;;;;;;5093969;28;20231;-70
2023/02/09 02:11:17;;;;;;;27.52;13.68;;;-4.10;57.90;;;;;;5093509;28;20231;-70
2023/02/09 02:13:44;;;;;;;21.00;12.50;;;-4.10;57.80;;;;;;5093438;28;20185;-71
2023/02/09 02:16:28;;;;;;;26.65;15.85;;;-4.10;57.40;;;;;;5092575;28;20228;-70
2023/02/09 02:19:20;;;;;;;21.33;11.82;;;-4.00;57.60;;;;;;5093272;28;20718;-69
2023/02/09 02:22:12;;;;;;;24.65;14.05;;;-4.10;57.70;;;;;;5092953;28;20225;-72
2023/02/09 02:25:08;;;;;;;25.00;14.30;;;-4.10;57.70;;;;;;5091746;28;20481;-71
2023/02/09 02:27:45;;;;;;;23.83;13.35;;;-4.10;57.40;;;;;;5087447;28;20224;-70
2023/02/09 02:30:35;;;;;;;23.00;13.43;;;-4.20;57.60;;;;;;5093131;28;20267;-70
2023/02/09 02:33:19;;;;;;;24.05;13.32;;;-4.20;57.50;;;;;;5093330;28;20201;-70
2023/02/09 02:35:56;;;;;;;23.17;14.82;;;-4.30;58.00;;;;;;5091306;28;20220;-71
2023/02/09 02:38:35;;;;;;;24.40;12.70;;;-4.30;58.30;;;;;;5093042;28;20642;-70
2023/02/09 02:41:13;;;;;;;24.70;14.50;;;-4.30;58.50;;;;;;5090406;28;20188;-72
2023/02/09 02:43:50;;;;;;;28.10;15.35;;;-4.40;59.10;;;;;;5093081;28;20195;-70
2023/02/09 02:46:26;;;;;;;27.65;14.57;;;-4.40;59.10;;;;;;5092220;28;20625;-72
2023/02/09 02:48:57;;;;;;;29.20;14.27;;;-4.30;59.10;;;;;;5093000;28;20275;-69
2023/02/09 02:51:30;;;;;;;30.15;13.73;;;-4.30;58.80;;;;;;5090050;28;20777;-72
2023/02/09 02:54:00;;;;;;;22.40;13.60;;;-4.40;58.90;;;;;;5092689;28;20806;-70
2023/02/09 02:56:31;;;;;;;24.25;13.10;;;-4.40;58.80;;;;;;5091971;28;20212;-71
2023/02/09 02:59:01;;;;;;;25.77;13.48;;;-4.50;59.00;;;;;;5092317;28;20258;-70
2023/02/09 03:01:34;;;;;;;28.83;15.32;;;-4.50;59.30;;;;;;5090816;28;20283;-70
2023/02/09 03:04:04;;;;;;;22.20;13.32;;;-4.60;59.50;;;;;;5092910;28;20569;-69
2023/02/09 03:06:32;;;;;;;26.80;13.77;;;-4.50;59.60;;;;;;5091878;28;20248;-71
2023/02/09 03:09:01;;;;;;;25.27;14.15;;;-4.50;59.50;;;;;;5092401;28;20189;-71
2023/02/09 03:11:34;;;;;;;21.95;12.68;;;-4.50;59.30;;;;;;5092405;28;20311;-71
2023/02/09 03:14:23;;;;;;;27.08;14.55;;;-4.60;59.30;;;;;;5092500;28;20231;-69
2023/02/09 03:17:00;;;;;;;25.02;14.27;;;-4.50;59.50;;;;;;5091929;28;20750;-69
2023/02/09 03:19:38;;;;;;;23.45;14.13;;;-4.50;59.40;;;;;;5092605;28;20667;-69
2023/02/09 03:22:11;;;;;;;26.98;13.35;;;-4.50;59.30;;;;;;5092099;28;20232;-71
2023/02/09 03:24:46;;;;;;;23.25;14.50;;;-4.50;59.30;;;;;;5092434;28;20264;-70
2023/02/09 03:27:18;;;;;;;22.05;12.43;;;-4.50;58.90;;;;;;5091980;28;20223;-71
2023/02/09 03:29:47;;;;;;;27.83;14.35;;;-4.50;58.80;;;;;;5092147;28;20217;-70
2023/02/09 03:32:15;;;;;;;23.45;14.45;;;-4.50;58.70;;;;;;5091984;28;20213;-68
2023/02/09 03:34:44;;;;;;;28.77;12.93;;;-4.60;58.60;;;;;;5091179;28;20185;-70
2023/02/09 03:37:11;;;;;;;23.23;14.63;;;-4.60;58.70;;;;;;5092423;28;20189;-70
2023/02/09 03:39:39;;;;;;;25.55;13.35;;;-4.60;59.20;;;;;;5091785;28;20216;-70
2023/02/09 03:42:06;;;;;;;24.58;13.88;;;-4.60;59.50;;;;;;5092148;28;20289;-71
2023/02/09 03:44:38;;;;;;;26.10;12.55;;;-4.60;59.30;;;;;;5091979;28;20264;-70
2023/02/09 03:47:06;;;;;;;23.75;14.68;;;-4.60;58.70;;;;;;5092179;28;20276;-70
2023/02/09 03:49:38;;;;;;;23.77;14.23;;;-4.70;58.40;;;;;;5095849;28;20647;-68
2023/02/09 03:52:11;;;;;;;31.98;15.25;;;-4.70;58.80;;;;;;5096230;28;20192;-70
2023/02/09 03:54:38;;;;;;;26.38;16.58;;;-4.70;59.00;;;;;;5095798;28;20228;-71
2023/02/09 03:57:06;;;;;;;26.10;16.02;;;-4.70;59.20;;;;;;5095238;28;20276;-72
2023/02/09 03:59:35;;;;;;;29.27;15.25;;;-4.70;59.10;;;;;;5096012;28;20268;-70
2023/02/09 04:02:04;;;;;;;21.05;13.00;;;-4.80;59.40;;;;;;5095389;28;20635;-70
2023/02/09 04:04:32;;;;;;;22.83;13.40;;;-4.80;59.50;;;;;;5095738;28;20232;-70
2023/02/09 04:06:59;;;;;;;24.20;14.30;;;-4.80;59.40;;;;;;5095345;28;20638;-70
2023/02/09 04:09:27;;;;;;;23.83;16.30;;;-4.80;59.30;;;;;;5095586;28;20283;-70
2023/02/09 04:11:55;;;;;;;24.70;15.15;;;-4.90;59.50;;;;;;5095189;28;20228;-70
2023/02/09 04:14:26;;;;;;;27.52;16.67;;;-4.90;59.50;;;;;;5095612;28;20670;-70
2023/02/09 04:16:54;;;;;;;24.75;14.02;;;-5.00;59.10;;;;;;5094964;28;20681;-71
2023/02/09 04:19:21;;;;;;;30.33;15.70;;;-5.00;59.30;;;;;;5095679;28;20284;-70
2023/02/09 04:21:48;;;;;;;25.42;15.98;;;-5.00;59.60;;;;;;5094930;28;20710;-70
2023/02/09 04:24:15;;;;;;;24.10;14.52;;;-5.00;60.10;;;;;;5095394;28;20235;-70
2023/02/09 04:26:43;;;;;;;25.13;13.80;;;-5.00;60.10;;;;;;5094328;28;20268;-71
2023/02/09 04:29:10;;;;;;;24.48;13.40;;;-5.00;60.10;;;;;;5095108;28;20197;-70
2023/02/09 04:31:42;;;;;;;27.13;15.73;;;-4.90;60.30;;;;;;5094635;28;20311;-71
2023/02/09 04:34:09;;;;;;;26.70;12.98;;;-4.90;60.20;;;;;;5095543;28;20177;-70
2023/02/09 04:36:36;;;;;;;31.25;16.55;;;-4.90;60.40;;;;;;5094411;28;20269;-71
2023/02/09 04:39:03;;;;;;;24.98;14.85;;;-4.90;60.30;;;;;;5095251;28;20225;-70
2023/02/09 04:41:30;;;;;;;28.20;15.38;;;-4.80;60.30;;;;;;5094609;28;20258;-70
2023/02/09 04:43:58;;;;;;;26.92;14.13;;;-4.80;60.00;;;;;;5094940;28;20228;-70
2023/02/09 04:46:26;;;;;;;21.35;13.73;;;-4.80;60.00;;;;;;5094452;28;20280;-70
2023/02/09 04:48:53;;;;;;;23.40;13.73;;;-4.80;59.50;;;;;;5095083;28;20190;-70
2023/02/09 04:51:20;;;;;;;21.50;12.38;;;-4.80;59.10;;;;;;5094279;28;20248;-71
2023/02/09 04:53:47;;;;;;;21.40;13.77;;;-4.90;58.80;;;;;;5094960;28;20193;-70
2023/02/09 04:56:15;;;;;;;20.60;12.38;;;-4.90;58.80;;;;;;5094306;28;20703;-71
2023/02/09 05:01:30;;;;;;;26.08;14.27;;;-5.00;59.10;;;;;;5092911;28;20196;-70
2023/02/09 05:03:57;;;;;;;21.73;14.20;;;-4.90;59.10;;;;;;5094557;28;20185;-70
2023/02/09 05:06:24;;;;;;;22.40;12.40;;;-4.90;58.90;;;;;;5094863;28;20228;-70
2023/02/09 05:08:51;;;;;;;28.35;14.77;;;-4.90;58.70;;;;;;5093372;28;20643;-70
2023/02/09 05:11:18;;;;;;;21.40;12.65;;;-5.00;58.60;;;;;;5093679;28;20275;-70
2023/02/09 05:13:46;;;;;;;26.35;13.90;;;-5.00;58.60;;;;;;5093265;28;20649;-70
2023/02/09 05:16:16;;;;;;;27.38;15.65;;;-5.10;59.60;;;;;;5094623;28;20593;-70
2023/02/09 05:18:44;;;;;;;22.63;14.05;;;-5.20;59.30;;;;;;5094538;28;20284;-70
2023/02/09 05:21:16;;;;;;;31.08;16.27;;;-5.20;59.60;;;;;;5094573;28;20216;-70
2023/02/09 05:23:57;;;;;;;26.23;13.50;;;-5.30;59.50;;;;;;5094460;28;20221;-72
2023/02/09 05:26:24;;;;;;;19.70;13.02;;;-5.30;60.30;;;;;;5094365;28;20275;-70
2023/02/09 05:28:51;;;;;;;26.45;14.98;;;-5.30;60.40;;;;;;5093597;28;20220;-70
2023/02/09 05:31:19;;;;;;;27.98;15.75;;;-5.30;60.70;;;;;;5094214;28;20259;-70
2023/02/09 05:33:47;;;;;;;28.75;15.63;;;-5.30;60.90;;;;;;5093925;28;20228;-70
2023/02/09 05:36:14;;;;;;;22.17;14.00;;;-5.20;61.20;;;;;;5074107;28;20269;-70
2023/02/09 05:38:41;;;;;;;30.85;17.27;;;-5.20;61.00;;;;;;5073847;28;20222;-69
2023/02/09 05:41:10;;;;;;;25.23;16.05;;;-5.20;60.90;;;;;;5091504;28;20640;-72
2023/02/09 05:43:37;;;;;;;24.92;16.40;;;-5.10;60.70;;;;;;5093859;28;20201;-71
2023/02/09 05:46:04;;;;;;;30.05;16.33;;;-5.10;60.30;;;;;;5094099;28;20283;-70
2023/02/09 05:48:32;;;;;;;27.63;16.27;;;-5.00;60.20;;;;;;5093659;28;20619;-70
2023/02/09 05:51:00;;;;;;;28.10;17.05;;;-5.00;59.80;;;;;;5093870;28;20257;-70
2023/02/09 05:53:30;;;;;;;31.98;18.40;;;-5.00;59.80;;;;;;5093224;28;20221;-70
2023/02/09 05:55:59;;;;;;;28.67;17.10;;;-5.00;59.80;;;;;;5093798;28;20229;-70
2023/02/09 05:58:26;;;;;;;29.90;16.92;;;-5.00;59.90;;;;;;5092421;28;20216;-70
2023/02/09 06:00:53;;;;;;;28.23;17.83;;;-4.90;60.10;;;;;;5093685;28;20635;-70
2023/02/09 06:03:20;;;;;;;26.83;14.20;;;-4.90;60.20;;;;;;5093226;28;20655;-70
2023/02/09 06:05:47;;;;;;;27.42;13.93;;;-4.90;59.90;;;;;;5093350;28;20312;-70
2023/02/09 06:08:15;;;;;;;19.83;10.90;;;-5.00;59.70;;;;;;5093145;28;20220;-69
2023/02/09 06:10:42;;;;;;;29.10;14.98;;;-4.90;59.80;;;;;;5092951;28;20307;-69
2023/02/09 06:13:17;;;;;;;23.35;12.95;;;-5.00;59.70;;;;;;5091394;28;20181;-73
2023/02/09 06:15:46;;;;;;;18.58;12.40;;;-5.00;59.90;;;;;;5093093;28;20279;-70
2023/02/09 06:18:13;;;;;;;23.02;13.00;;;-5.00;59.90;;;;;;5090387;28;20246;-69
2023/02/09 06:20:40;;;;;;;22.58;13.30;;;-4.90;59.80;;;;;;5093238;28;20196;-70
2023/02/09 06:23:07;;;;;;;29.13;16.80;;;-4.90;59.80;;;;;;5091542;28;20242;-71
2023/02/09 06:25:38;;;;;;;19.17;13.18;;;-4.90;59.60;;;;;;5089129;28;20280;-69
2023/02/09 06:28:06;;;;;;;21.92;14.20;;;-5.00;59.80;;;;;;5091106;28;20695;-70
2023/02/09 06:30:33;;;;;;;27.77;16.27;;;-5.00;60.00;;;;;;5092982;28;20209;-70
2023/02/09 06:33:00;;;;;;;29.45;15.82;;;-5.00;60.10;;;;;;5090756;28;20228;-71
2023/02/09 06:35:32;;;;;;;25.38;16.17;;;-5.00;60.20;;;;;;5092853;28;20188;-70
2023/02/09 06:37:59;;;;;;;31.33;17.40;;;-5.00;59.90;;;;;;5092850;28;20197;-70
2023/02/09 06:40:27;;;;;;;28.00;18.08;;;-5.00;60.00;;;;;;5092880;28;20270;-70
2023/02/09 06:43:01;;;;;;;31.15;19.00;;;-5.00;59.70;;;;;;5092571;28;20189;-69
2023/02/09 06:45:28;;;;;;;29.67;19.15;;;-5.00;59.60;;;;;;5092142;28;20681;-69
2023/02/09 06:47:56;;;;;;;30.50;19.15;;;-5.00;59.50;;;;;;5092587;28;20189;-69
2023/02/09 06:50:23;;;;;;;27.55;16.77;;;-5.10;59.70;;;;;;5092306;28;20185;-71
2023/02/09 06:52:53;;;;;;;24.00;16.33;;;-5.00;60.20;;;;;;5092362;28;20264;-70
2023/02/09 06:55:20;;;;;;;28.38;15.75;;;-4.90;60.50;;;;;;5092326;28;20640;-70
2023/02/09 06:57:47;;;;;;;28.20;16.88;;;-4.80;60.50;;;;;;5092216;28;20197;-70
2023/02/09 07:00:19;;;;;;;25.70;16.42;;;-4.60;60.60;;;;;;5092610;28;20207;-70
2023/02/09 07:02:47;;;;;;;33.00;16.88;;;-4.50;60.50;;;;;;5092591;28;20547;-70
2023/02/09 07:05:15;;;;;;;34.63;18.23;;;-4.30;60.50;;;;;;5092158;28;20346;-70
2023/02/09 07:07:43;;;;;;;25.02;14.57;;;-4.00;60.30;;;;;;5092304;28;20189;-70
2023/02/09 07:10:13;;;;;;;26.83;14.40;;;-3.90;59.70;;;;;;5088589;28;20211;-71
2023/02/09 07:12:42;;;;;;;20.42;14.40;;;-3.70;59.20;;;;;;5091181;28;20335;-70
2023/02/09 07:15:11;;;;;;;21.48;13.00;;;-3.40;59.00;;;;;;5091868;28;20643;-70
2023/02/09 07:17:41;;;;;;;23.55;14.27;;;-3.30;58.40;;;;;;5090527;28;20200;-72
2023/02/09 07:20:09;;;;;;;22.88;13.98;;;-3.00;58.20;;;;;;5079260;28;20193;-72
2023/02/09 07:22:36;;;;;;;22.73;14.48;;;-2.80;58.20;;;;;;5094644;28;20235;-72
2023/02/09 07:25:04;;;;;;;25.65;13.98;;;-2.50;57.80;;;;;;5094552;28;20230;-70
2023/02/09 07:27:33;;;;;;;20.67;13.73;;;-2.30;57.20;;;;;;5095231;28;20200;-70
2023/02/09 07:30:00;;;;;;;24.23;15.27;;;-2.10;56.80;;;;;;5095304;28;20193;-70
2023/02/09 07:32:32;;;;;;;23.80;15.32;;;-1.80;56.50;;;;;;5095095;28;20216;-70
2023/02/09 07:35:01;;;;;;;20.85;13.00;;;-1.60;55.90;;;;;;5095484;28;20200;-70
2023/02/09 07:37:28;;;;;;;20.05;13.20;;;-1.30;55.50;;;;;;5091112;28;20212;-70
2023/02/09 07:39:55;;;;;;;22.90;14.52;;;-1.00;54.90;;;;;;5094265;28;20234;-70
2023/02/09 07:42:22;;;;;;;18.70;11.55;;;-0.70;54.30;;;;;;5095891;28;20275;-72
2023/02/09 07:44:49;;;;;;;17.95;11.13;;;-0.40;53.90;;;;;;5095872;28;20322;-70
2023/02/09 07:47:16;;;;;;;18.50;11.85;;;-0.20;53.10;;;;;;5096087;28;20272;-70
2023/02/09 07:49:43;;;;;;;19.08;10.45;;;0.20;52.80;;;;;;5096473;28;20237;-70
2023/02/09 07:52:12;;;;;;;16.45;10.15;;;0.50;51.90;;;;;;5096729;28;20605;-71
2023/02/09 07:54:39;;;;;;;13.68;9.65;;;0.80;51.80;;;;;;5096167;28;20193;-70
2023/02/09 07:57:06;;;;;;;17.02;10.82;;;1.10;50.80;;;;;;5096310;28;20193;-70
2023/02/09 07:59:33;;;;;;;16.15;9.43;;;1.40;50.20;;;;;;5095984;28;20247;-70
2023/02/09 08:02:00;;;;;;;18.77;9.70;;;1.70;49.40;;;;;;5095858;28;20208;-70
2023/02/09 08:04:27;;;;;;;17.05;9.95;;;2.10;48.90;;;;;;5096063;28;20627;-70
2023/02/09 08:06:55;;;;;;;14.90;9.07;;;2.40;48.70;;;;;;5095937;28;20219;-70
2023/02/09 08:09:23;;;;;;;16.45;9.02;;;2.80;47.80;;;;;;5096265;28;20229;-71
2023/02/09 08:11:55;;;;;;;12.32;9.18;;;3.00;47.20;;;;;;5096035;28;20224;-70
2023/02/09 08:14:34;;;;;;;19.33;9.95;;;3.40;46.50;;;;;;5096070;28;20199;-70
2023/02/09 08:17:22;;;;;;;15.00;8.90;;;3.70;45.90;;;;;;5095879;28;20650;-70
2023/02/09 08:19:54;;;;;;;15.45;9.73;;;4.00;45.20;;;;;;5096082;28;20234;-71
2023/02/09 08:22:23;;;;;;;12.90;8.70;;;4.40;44.30;;;;;;5095979;28;20318;-71
2023/02/09 08:24:51;;;;;;;14.45;10.25;;;4.70;43.80;;;;;;5095399;28;20275;-70
2023/02/09 08:27:23;;;;;;;22.10;11.13;;;5.10;43.50;;;;;;5095645;28;20284;-70
2023/02/09 08:29:50;;;;;;;17.58;11.40;;;5.40;43.00;;;;;;5095685;28;20276;-70
2023/02/09 08:32:17;;;;;;;15.35;11.05;;;5.80;42.40;;;;;;5095802;28;20225;-70
2023/02/09 08:34:44;;;;;;;18.90;11.23;;;6.10;41.40;;;;;;5095131;28;20280;-71
2023/02/09 08:37:11;;;;;;;17.42;9.35;;;6.40;40.70;;;;;;5095273;28;20247;-70
2023/02/09 08:39:38;;;;;;;12.77;9.65;;;6.80;40.00;;;;;;5095622;28;20225;-71
2023/02/09 08:42:07;;;;;;;13.02;9.60;;;7.00;39.50;;;;;;5095482;28;20232;-71
2023/02/09 08:44:34;;;;;;;12.38;9.20;;;7.30;39.10;;;;;;5095463;28;20229;-71
2023/02/09 08:47:01;;;;;;;14.65;9.57;;;7.60;38.70;;;;;;5095594;28;20228;-70
2023/02/09 08:49:28;;;;;;;15.98;9.93;;;8.00;37.70;;;;;;5095684;28;20224;-69
2023/02/09 08:51:55;;;;;;;16.80;9.10;;;8.30;37.20;;;;;;5095387;28;20307;-70
2023/02/09 08:54:23;;;;;;;15.05;10.63;;;8.60;36.20;;;;;;5095414;28;20188;-71
2023/02/09 08:56:51;;;;;;;13.02;10.23;;;8.90;35.60;;;;;;5095365;28;20347;-70
2023/02/09 08:59:20;;;;;;;14.73;9.98;;;9.10;34.70;;;;;;5095189;28;20196;-71
2023/02/09 09:01:47;;;;;;;12.18;9.25;;;9.30;34.40;;;;;;5095256;28;20192;-70
2023/02/09 09:04:14;;;;;;;17.35;10.18;;;9.50;33.70;;;;;;5094431;28;20283;-71
2023/02/09 09:06:41;;;;;;;16.70;10.82;;;9.70;33.40;;;;;;5094783;28;20715;-72
2023/02/09 09:09:08;;;;;;;12.80;8.57;;;10.00;32.20;;;;;;5095288;28;20227;-70
2023/02/09 09:11:36;;;;;;;13.95;11.10;;;10.10;31.60;;;;;;5095066;28;20242;-70
2023/02/09 09:14:03;;;;;;;17.23;12.65;;;10.30;31.80;;;;;;5095104;28;20279;-70
2023/02/09 09:16:32;;;;;;;15.57;11.55;;;10.60;31.60;;;;;;5094912;28;20224;-70
2023/02/09 09:18:59;;;;;;;18.98;9.50;;;10.90;31.50;;;;;;5094809;28;20250;-70
2023/02/09 09:21:26;;;;;;;13.38;9.75;;;11.00;30.40;;;;;;5094331;28;20288;-70
2023/02/09 09:23:53;;;;;;;21.90;14.73;;;11.20;29.70;;;;;;5094994;28;20225;-70
2023/02/09 09:26:28;;;;;;;20.00;10.40;;;11.20;29.30;;;;;;5094930;28;20228;-70
2023/02/09 09:28:55;;;;;;;15.38;9.85;;;11.30;29.20;;;;;;5094774;28;20220;-70
2023/02/09 09:31:22;;;;;;;15.27;10.82;;;11.60;29.00;;;;;;5094322;28;20227;-70
2023/02/09 09:33:51;;;;;;;14.98;10.25;;;12.00;28.90;;;;;;5094899;28;20215;-70
2023/02/09 09:36:19;;;;;;;16.17;11.32;;;12.30;28.60;;;;;;5094667;28;20225;-70
2023/02/09 09:38:46;;;;;;;13.65;10.70;;;12.60;28.50;;;;;;5094437;28;20189;-70
2023/02/09 09:41:24;;;;;;;15.13;11.63;;;12.90;27.90;;;;;;5094241;28;20695;-71
2023/02/09 09:43:52;;;;;;;16.58;10.85;;;13.20;27.50;;;;;;5094498;28;20279;-70
2023/02/09 09:46:21;;;;;;;13.20;10.35;;;13.30;27.10;;;;;;5090165;28;20293;-70
2023/02/09 09:48:52;;;;;;;13.20;9.05;;;13.40;27.10;;;;;;5092644;28;20194;-71
2023/02/09 09:51:26;;;;;;;13.10;9.80;;;13.50;26.60;;;;;;5093797;28;20714;-70
2023/02/09 09:53:56;;;;;;;13.25;10.18;;;13.70;26.10;;;;;;5093689;28;20239;-71
2023/02/09 09:56:23;;;;;;;16.95;10.52;;;13.80;25.50;;;;;;5093357;28;20212;-70
2023/02/09 09:58:50;;;;;;;12.48;10.23;;;13.90;25.70;;;;;;5093985;28;20224;-71
2023/02/09 10:01:22;;;;;;;11.95;8.75;;;14.00;25.50;;;;;;5093778;28;20193;-70
2023/02/09 10:03:49;;;;;;;9.27;8.35;;;14.10;25.10;;;;;;5093778;28;20238;-70
2023/02/09 10:06:20;;;;;;;11.60;8.77;;;14.10;24.90;;;;;;5093331;28;20309;-70
2023/02/09 10:08:52;;;;;;;13.93;8.25;;;14.40;25.20;;;;;;5093295;28;20576;-70
2023/02/09 10:11:23;;;;;;;11.30;9.50;;;14.50;24.90;;;;;;5093589;28;20221;-70
2023/02/09 10:13:55;;;;;;;12.57;8.20;;;14.50;24.80;;;;;;5093326;28;20242;-70
2023/02/09 10:16:25;;;;;;;11.60;8.40;;;14.70;25.30;;;;;;5093453;28;20185;-72
2023/02/09 10:18:53;;;;;;;10.20;8.67;;;14.90;24.30;;;;;;5093882;28;20689;-70
2023/02/09 10:21:24;;;;;;;10.67;8.60;;;15.10;23.70;;;;;;5091212;28;20470;-70
2023/02/09 10:24:03;;;;;;;10.67;8.03;;;15.30;23.90;;;;;;5093148;28;20471;-70
2023/02/09 10:26:31;;;;;;;13.50;8.03;;;15.50;23.50;;;;;;5093789;28;20521;-70
2023/02/09 10:29:00;;;;;;;10.67;7.90;;;15.60;22.30;;;;;;5093479;28;21042;-71
2023/02/09 10:31:35;;;;;;;13.93;9.57;;;15.70;22.10;;;;;;5093385;28;20439;-70
2023/02/09 10:34:04;;;;;;;11.80;8.27;;;15.80;22.70;;;;;;5093446;28;20435;-70
2023/02/09 10:36:35;;;;;;;11.40;8.00;;;15.90;22.40;;;;;;5093548;28;21009;-70
2023/02/09 10:39:14;;;;;;;9.47;7.40;;;16.00;22.20;;;;;;5093587;28;20523;-70
2023/02/09 10:41:44;;;;;;;9.10;7.50;;;16.10;22.30;;;;;;5093231;28;20993;-70
2023/02/09 10:44:21;;;;;;;12.90;7.23;;;16.20;22.40;;;;;;5093243;28;20439;-71
2023/02/09 10:46:48;;;;;;;12.67;8.47;;;16.30;22.00;;;;;;5092979;28;20442;-70
2023/02/09 10:49:30;;;;;;;11.23;8.00;;;16.40;22.80;;;;;;5092950;28;20462;-71
2023/02/09 10:52:15;;;;;;;12.97;8.63;;;16.70;23.00;;;;;;5093073;28;20470;-71
2023/02/09 10:54:46;;;;;;;9.00;7.00;;;17.00;22.40;;;;;;5092892;28;20518;-71
2023/02/09 10:57:26;;;;;;;7.00;5.77;;;17.20;22.20;;;;;;5092538;28;20439;-71
2023/02/09 10:59:55;;;;;;;8.23;5.93;;;17.30;20.70;;;;;;5093168;28;20493;-70
2023/02/09 11:02:34;;;;;;;7.30;5.33;;;17.40;20.10;;;;;;5093100;28;20439;-70
2023/02/09 11:05:01;;;;;;;9.07;6.37;;;17.60;20.30;;;;;;5092910;28;20463;-71
2023/02/09 11:07:35;;;;;;;9.80;7.63;;;17.80;20.70;;;;;;5093181;28;20839;-71
2023/02/09 11:10:05;;;;;;;9.40;6.87;;;18.10;20.50;;;;;;5093170;28;20525;-71
2023/02/09 11:12:32;;;;;;;7.43;5.50;;;18.30;19.40;;;;;;5092930;28;20479;-71
2023/02/09 11:15:00;;;;;;;7.00;4.87;;;18.30;18.70;;;;;;5092995;28;20512;-70
2023/02/09 11:17:35;;;;;;;8.33;6.20;;;18.30;18.60;;;;;;5092734;28;21004;-71
2023/02/09 11:20:19;;;;;;;7.30;5.60;;;18.10;18.70;;;;;;5093130;28;20438;-70
2023/02/09 11:23:09;;;;;;;6.57;5.27;;;18.20;19.30;;;;;;5092716;28;20427;-70
2023/02/09 11:25:41;;;;;;;7.50;5.30;;;18.40;18.90;;;;;;5093033;28;20478;-70
2023/02/09 11:28:25;;;;;;;9.50;6.13;;;18.50;18.70;;;;;;5092407;28;20496;-70
2023/02/09 11:31:20;;;;;;;8.03;6.50;;;18.50;18.80;;;;;;5092791;28;20445;-70
2023/02/09 11:33:59;;;;;;;6.87;5.77;;;18.50;19.30;;;;;;5092676;28;20550;-70
2023/02/09 11:36:41;;;;;;;7.30;5.80;;;18.70;19.50;;;;;;5092478;28;20568;-70
2023/02/09 11:39:19;;;;;;;8.43;5.83;;;18.90;18.70;;;;;;5092704;28;20484;-71
2023/02/09 11:44:44;;;;;;;6.97;5.60;;;19.20;18.30;;;;;;5092254;28;20912;-70
2023/02/09 11:47:15;;;;;;;18.13;7.30;;;19.30;18.90;;;;;;5092600;28;20916;-70
2023/02/09 11:49:45;;;;;;;9.03;6.70;;;19.30;18.50;;;;;;5092600;28;20518;-70
2023/02/09 11:52:16;;;;;;;8.93;6.07;;;19.20;17.90;;;;;;5092661;28;20535;-70
2023/02/09 11:54:48;;;;;;;11.37;5.97;;;18.60;18.10;;;;;;5092373;28;20526;-69
2023/02/09 11:57:20;;;;;;;9.60;6.00;;;18.70;19.10;;;;;;5092441;28;20474;-70
2023/02/09 11:59:55;;;;;;;8.60;5.93;;;19.00;19.90;;;;;;5092556;28;20853;-70
2023/02/09 12:02:38;;;;;;;7.43;5.93;;;19.30;19.60;;;;;;5092603;28;20441;-70
2023/02/09 12:05:10;;;;;;;8.93;6.23;;;19.60;19.30;;;;;;5092138;28;20813;-70
2023/02/09 12:07:41;;;;;;;10.07;6.20;;;19.80;19.30;;;;;;5092490;28;20435;-71
2023/02/09 12:10:19;;;;;;;8.63;5.90;;;19.90;19.10;;;;;;5095858;28;20438;-70
2023/02/09 12:12:50;;;;;;;10.40;6.67;;;20.00;18.90;;;;;;5095931;28;20509;-70
2023/02/09 12:15:20;;;;;;;7.80;6.57;;;20.10;18.90;;;;;;5096211;28;20474;-70
2023/02/09 12:17:51;;;;;;;9.20;6.17;;;20.20;19.00;;;;;;5095874;28;20529;-70
2023/02/09 12:20:28;;;;;;;6.20;5.50;;;20.20;18.50;;;;;;5096095;28;20489;-70
2023/02/09 12:23:06;;;;;;;9.93;5.30;;;20.30;18.70;;;;;;5096171;28;20477;-69
2023/02/09 12:25:50;;;;;;;7.70;5.67;;;20.30;18.10;;;;;;5096017;28;20974;-70
2023/02/09 12:28:38;;;;;;;13.40;6.00;;;20.30;18.40;;;;;;5095810;28;20521;-70
2023/02/09 12:31:09;;;;;;;6.97;5.20;;;20.40;18.00;;;;;;5095639;28;20438;-70
2023/02/09 12:33:37;;;;;;;8.70;6.40;;;20.40;18.30;;;;;;5095919;28;20479;-70
2023/02/09 12:36:21;;;;;;;8.20;6.30;;;20.50;17.60;;;;;;5095963;28;20443;-70
2023/02/09 12:39:01;;;;;;;9.63;6.13;;;20.50;17.60;;;;;;5090961;28;20484;-70
2023/02/09 12:41:31;;;;;;;9.00;6.10;;;20.40;17.60;;;;;;5094856;28;20522;-69
2023/02/09 12:44:39;;;;;;;9.97;5.97;;;20.40;17.70;;;;;;5094692;28;20523;-70
2023/02/09 12:47:57;;;;;;;8.53;6.30;;;20.30;17.80;;;;;;5094825;28;20514;-70
2023/02/09 12:50:32;;;;;;;10.17;7.57;;;20.30;18.20;;;;;;5095059;28;20785;-70
2023/02/09 12:53:31;;;;;;;9.37;6.30;;;20.20;18.20;;;;;;5094708;28;20521;-70
2023/02/09 12:56:00;;;;;;;9.23;6.53;;;20.20;17.90;;;;;;5094927;28;20431;-70
2023/02/09 12:58:39;;;;;;;8.27;6.00;;;20.10;18.40;;;;;;5094681;28;20840;-70
2023/02/09 13:01:06;;;;;;;11.53;6.90;;;20.00;18.60;;;;;;5094942;28;20474;-70
2023/02/09 13:03:42;;;;;;;8.20;6.40;;;20.00;19.10;;;;;;5093502;28;20555;-70